Time;durP1;ratioP1;P1;durP2;ratioP2;P2;SDS_P1;SDS_P2;PMS_P1;PMS_P2;Temp;Humidity;BMP_temperature;BMP_pressure;BME280_temperature;BME280_humidity;BME280_pressure;Samples;Min_cycle;Max_cycle;Signal;HPM_P1;HPM_P2
2024/01/09 00:01:14;;;;;;;3.80;1.90;;;-3275.50;85.40;;;;;;5031116;28;20082;-39
2024/01/09 00:03:40;;;;;;;4.45;1.88;;;-3275.60;85.20;;;;;;5016476;28;20034;-40
2024/01/09 00:06:15;;;;;;;6.30;2.30;;;-3275.50;85.10;;;;;;5011021;28;20040;-40
2024/01/09 00:08:43;;;;;;;5.43;2.00;;;-3275.50;85.10;;;;;;5011015;28;20041;-40
2024/01/09 00:11:13;;;;;;;4.07;3.53;;;-3275.50;85.10;;;;;;5012017;28;20026;-40
2024/01/09 00:13:41;;;;;;;5.80;2.50;;;-3275.50;85.20;;;;;;5030920;28;20108;-40
2024/01/09 00:16:08;;;;;;;5.55;3.08;;;-3275.40;85.30;;;;;;5030738;28;20132;-40
2024/01/09 00:18:35;;;;;;;6.07;2.60;;;-3275.40;85.50;;;;;;5030777;28;20037;-40
2024/01/09 00:21:02;;;;;;;9.50;2.58;;;-3275.50;85.90;;;;;;5024843;28;20396;-40
2024/01/09 00:23:29;;;;;;;5.53;2.20;;;-3275.50;85.90;;;;;;5011077;28;20026;-40
2024/01/09 00:25:56;;;;;;;6.65;2.55;;;-3275.40;85.80;;;;;;4993207;28;20117;-40
2024/01/09 00:28:23;;;;;;;6.20;2.30;;;-3275.40;86.00;;;;;;5010722;28;20065;-41
2024/01/09 00:30:48;;;;;;;4.53;2.35;;;-3275.40;86.00;;;;;;5024571;28;20025;-39
2024/01/09 00:33:15;;;;;;;8.05;2.33;;;-3275.40;86.00;;;;;;5030323;28;20328;-41
2024/01/09 00:35:42;;;;;;;6.10;2.85;;;-3275.30;85.80;;;;;;5029896;28;20100;-40
2024/01/09 00:38:10;;;;;;;6.93;2.85;;;-3275.30;85.90;;;;;;5047760;27;20034;-40
2024/01/09 00:40:35;;;;;;;4.80;2.70;;;-3275.30;86.20;;;;;;5134899;27;20019;-40
2024/01/09 00:43:02;;;;;;;5.20;2.38;;;-3275.30;86.10;;;;;;5098579;27;20530;-40
2024/01/09 00:45:29;;;;;;;9.13;2.90;;;-3275.30;86.30;;;;;;5010724;28;20438;-39
2024/01/09 00:47:55;;;;;;;5.57;2.97;;;-3275.20;86.40;;;;;;5010677;28;20117;-40
2024/01/09 00:50:25;;;;;;;5.70;3.30;;;-3275.20;86.30;;;;;;5010569;28;20022;-40
2024/01/09 00:52:54;;;;;;;5.05;2.22;;;-3275.20;86.40;;;;;;5010441;28;20030;-40
2024/01/09 00:55:21;;;;;;;9.93;3.10;;;-3275.20;86.40;;;;;;5010204;28;20038;-39
2024/01/09 00:57:48;;;;;;;8.25;3.70;;;-3275.10;86.30;;;;;;5010448;28;20026;-40
2024/01/09 01:00:15;;;;;;;5.13;2.90;;;-3275.20;86.40;;;;;;4992965;28;20392;-40
2024/01/09 01:02:42;;;;;;;4.95;2.85;;;-3275.10;86.40;;;;;;5010052;28;20102;-40
2024/01/09 01:05:08;;;;;;;9.00;2.92;;;-3275.10;86.50;;;;;;4992628;28;20037;-40
2024/01/09 01:07:33;;;;;;;5.63;3.28;;;-3275.10;86.50;;;;;;5010100;28;20086;-40
2024/01/09 01:10:00;;;;;;;7.90;3.65;;;-3275.10;86.60;;;;;;5010005;28;20041;-40
2024/01/09 01:12:27;;;;;;;8.82;3.08;;;-3275.00;86.80;;;;;;5010212;28;20022;-40
2024/01/09 01:14:54;;;;;;;7.90;2.90;;;-3275.10;86.90;;;;;;5009208;28;20079;-40
2024/01/09 01:17:21;;;;;;;7.57;3.83;;;-3275.00;86.80;;;;;;5010006;28;20069;-40
2024/01/09 01:19:48;;;;;;;6.03;3.33;;;-3275.10;86.80;;;;;;5016021;28;20438;-40
2024/01/09 01:22:15;;;;;;;6.50;2.55;;;-3275.00;86.70;;;;;;5029860;28;20120;-40
2024/01/09 01:24:45;;;;;;;5.78;2.83;;;-3275.00;86.80;;;;;;5029736;28;20026;-40
2024/01/09 01:27:10;;;;;;;;;;;-3275.00;86.70;;;;;;5026959;28;20045;-40
2024/01/09 01:29:37;;;;;;;6.63;3.25;;;-3274.90;86.70;;;;;;5009513;28;20362;-41
2024/01/09 01:32:09;;;;;;;7.45;3.15;;;-3274.90;86.90;;;;;;5009393;28;20102;-40
2024/01/09 01:34:35;;;;;;;5.30;2.47;;;-3274.90;87.00;;;;;;5009382;28;20022;-40
2024/01/09 01:37:01;;;;;;;8.68;3.85;;;-3274.90;86.90;;;;;;5009094;28;20108;-40
2024/01/09 01:39:26;;;;;;;9.55;3.63;;;-3274.90;86.90;;;;;;5108913;27;20164;-40
2024/01/09 01:41:55;;;;;;;6.05;3.20;;;-3274.90;86.90;;;;;;5101814;27;20468;-40
2024/01/09 01:44:22;;;;;;;5.78;2.83;;;-3274.80;87.10;;;;;;5009340;28;20077;-41
2024/01/09 01:46:49;;;;;;;5.20;3.00;;;-3274.90;87.30;;;;;;5022022;28;20065;-40
2024/01/09 01:49:17;;;;;;;8.00;2.97;;;-3274.80;87.20;;;;;;5029275;28;20045;-39
2024/01/09 01:51:46;;;;;;;5.05;2.40;;;-3274.80;87.20;;;;;;5025839;28;20026;-40
2024/01/09 01:54:14;;;;;;;4.85;2.28;;;-3274.80;87.20;;;;;;5009661;28;20037;-40
2024/01/09 01:56:41;;;;;;;6.35;2.90;;;-3274.80;87.20;;;;;;5009231;28;20054;-40
2024/01/09 01:59:10;;;;;;;5.38;2.75;;;-3274.80;87.30;;;;;;5009605;28;20083;-40
2024/01/09 02:01:38;;;;;;;6.20;3.03;;;-3274.80;87.30;;;;;;5009589;28;20058;-39
2024/01/09 02:04:06;;;;;;;9.57;3.15;;;-3274.80;87.40;;;;;;5009598;28;20594;-39
2024/01/09 02:06:33;;;;;;;7.95;2.67;;;-3274.80;87.40;;;;;;5021785;28;20140;-40
2024/01/09 02:08:59;;;;;;;5.30;2.72;;;-3274.80;87.40;;;;;;5027069;28;20072;-40
2024/01/09 02:11:28;;;;;;;6.53;3.05;;;-3274.80;87.20;;;;;;5009611;28;20057;-40
2024/01/09 02:13:55;;;;;;;7.63;3.45;;;-3274.80;87.20;;;;;;5009598;28;20029;-40
2024/01/09 02:16:22;;;;;;;10.13;4.53;;;-3274.80;87.10;;;;;;5009461;28;20088;-40
2024/01/09 02:18:47;;;;;;;4.82;2.50;;;-3274.80;86.90;;;;;;4992415;28;20062;-42
2024/01/09 02:21:14;;;;;;;9.32;2.78;;;-3274.70;87.00;;;;;;5029192;28;20073;-40
2024/01/09 02:23:44;;;;;;;7.57;2.90;;;-3274.70;87.20;;;;;;5028965;28;20048;-40
2024/01/09 02:26:19;;;;;;;11.20;2.90;;;-3274.80;87.40;;;;;;5027913;28;20460;-40
2024/01/09 02:28:56;;;;;;;5.80;2.90;;;-3274.70;87.40;;;;;;5012403;28;20029;-41
2024/01/09 02:31:23;;;;;;;10.27;3.40;;;-3274.70;87.50;;;;;;4979767;28;20410;-40
2024/01/09 02:33:49;;;;;;;6.22;3.25;;;-3274.70;87.80;;;;;;5012781;28;20363;-39
2024/01/09 02:36:16;;;;;;;7.50;3.13;;;-3274.70;87.70;;;;;;4995269;28;20052;-40
2024/01/09 02:38:43;;;;;;;13.30;5.25;;;-3274.70;87.90;;;;;;5073905;27;20334;-39
2024/01/09 02:41:10;;;;;;;7.95;3.22;;;-3274.70;87.80;;;;;;5091256;27;20026;-39
2024/01/09 02:43:38;;;;;;;6.07;3.13;;;-3274.70;87.70;;;;;;5012414;28;20518;-39
2024/01/09 02:46:03;;;;;;;5.70;2.67;;;-3274.70;87.80;;;;;;4995156;28;20038;-40
2024/01/09 02:48:30;;;;;;;5.80;3.42;;;-3274.70;87.80;;;;;;5012205;28;20042;-40
2024/01/09 02:50:57;;;;;;;7.57;3.97;;;-3274.70;87.80;;;;;;5031799;28;20025;-40
2024/01/09 02:53:24;;;;;;;6.95;3.20;;;-3274.60;87.50;;;;;;5032010;28;20025;-40
2024/01/09 02:55:51;;;;;;;6.60;3.08;;;-3274.60;87.70;;;;;;5032065;28;20032;-39
2024/01/09 02:58:17;;;;;;;8.48;3.38;;;-3274.60;87.60;;;;;;5016818;28;20030;-40
2024/01/09 03:00:44;;;;;;;7.80;3.08;;;-3274.60;87.60;;;;;;5012514;28;20304;-40
2024/01/09 03:03:11;;;;;;;7.47;4.22;;;-3274.50;87.60;;;;;;5012241;28;20025;-40
2024/01/09 03:05:37;;;;;;;7.03;2.80;;;-3274.60;87.60;;;;;;5011705;28;20113;-41
2024/01/09 03:08:04;;;;;;;7.60;3.45;;;-3274.50;87.40;;;;;;5011904;28;20133;-39
2024/01/09 03:10:33;;;;;;;4.70;2.35;;;-3274.50;87.40;;;;;;5011976;28;20049;-40
2024/01/09 03:13:00;;;;;;;5.47;2.83;;;-3274.50;87.40;;;;;;5011965;28;20068;-39
2024/01/09 03:15:25;;;;;;;9.32;2.60;;;-3274.50;87.20;;;;;;5012014;28;20636;-39
2024/01/09 03:17:52;;;;;;;5.95;3.05;;;-3274.60;87.30;;;;;;4994510;28;20045;-39
2024/01/09 03:20:18;;;;;;;8.45;2.78;;;-3274.50;87.20;;;;;;5023580;28;20354;-40
2024/01/09 03:22:47;;;;;;;8.88;3.50;;;-3274.50;87.20;;;;;;5014239;28;20128;-40
2024/01/09 03:25:14;;;;;;;6.75;3.38;;;-3274.50;87.30;;;;;;5031062;28;20036;-40
2024/01/09 03:27:41;;;;;;;5.90;3.30;;;-3274.50;87.30;;;;;;5012006;28;20090;-40
2024/01/09 03:30:08;;;;;;;8.93;4.38;;;-3274.50;87.10;;;;;;4994305;28;20022;-39
2024/01/09 03:32:34;;;;;;;5.45;2.70;;;-3274.50;87.10;;;;;;5011824;28;20367;-40
2024/01/09 03:35:01;;;;;;;9.55;4.03;;;-3274.50;87.20;;;;;;5011675;28;20162;-40
2024/01/09 03:37:28;;;;;;;5.88;3.10;;;-3274.50;87.20;;;;;;5011208;28;20494;-40
2024/01/09 03:39:59;;;;;;;8.82;3.38;;;-3274.50;87.10;;;;;;5027007;27;20116;-41
2024/01/09 03:42:25;;;;;;;7.30;3.50;;;-3274.50;87.10;;;;;;4994102;28;20037;-40
2024/01/09 03:44:52;;;;;;;9.20;3.22;;;-3274.50;87.00;;;;;;5011452;28;20037;-40
2024/01/09 03:47:19;;;;;;;7.13;4.07;;;-3274.40;87.00;;;;;;5011263;28;20129;-40
2024/01/09 03:49:44;;;;;;;8.07;4.30;;;-3274.40;86.90;;;;;;5011409;28;20462;-40
2024/01/09 03:52:11;;;;;;;9.38;3.85;;;-3274.40;87.10;;;;;;4994146;28;20117;-40
2024/01/09 03:54:38;;;;;;;5.78;3.40;;;-3274.40;87.30;;;;;;5023526;28;20502;-40
2024/01/09 03:57:05;;;;;;;9.38;4.40;;;-3274.40;87.20;;;;;;5030637;28;20026;-40
2024/01/09 03:59:32;;;;;;;7.32;3.75;;;-3274.30;87.10;;;;;;5030390;28;20105;-40
2024/01/09 04:01:57;;;;;;;8.10;4.10;;;-3274.40;87.40;;;;;;5014328;28;20163;-39
2024/01/09 04:04:24;;;;;;;8.02;4.28;;;-3274.40;87.30;;;;;;4993598;28;20412;-40
2024/01/09 04:06:51;;;;;;;8.07;3.35;;;-3274.40;87.40;;;;;;5026491;28;20473;-40
2024/01/09 04:09:19;;;;;;;8.10;4.00;;;-3274.30;87.60;;;;;;5019128;28;20494;-39
2024/01/09 04:11:46;;;;;;;7.97;3.40;;;-3274.30;87.60;;;;;;5011246;28;20094;-41
2024/01/09 04:14:13;;;;;;;6.63;3.83;;;-3274.30;87.60;;;;;;5011177;28;20022;-40
2024/01/09 04:16:45;;;;;;;6.72;3.75;;;-3274.30;87.60;;;;;;5010734;28;20045;-40
2024/01/09 04:19:14;;;;;;;8.15;4.15;;;-3274.30;87.60;;;;;;5010846;28;20022;-41
2024/01/09 04:21:40;;;;;;;8.13;5.00;;;-3274.30;87.70;;;;;;5010913;28;20029;-40
2024/01/09 04:24:06;;;;;;;11.63;4.70;;;-3274.30;87.80;;;;;;5010886;28;20045;-40
2024/01/09 04:26:34;;;;;;;7.18;4.15;;;-3274.30;87.60;;;;;;5010541;28;20038;-40
2024/01/09 04:29:01;;;;;;;9.55;4.65;;;-3274.20;87.80;;;;;;5024004;28;20040;-40
2024/01/09 04:31:28;;;;;;;8.35;4.85;;;-3274.30;88.10;;;;;;5030651;28;20037;-40
2024/01/09 04:33:58;;;;;;;7.13;4.13;;;-3274.20;88.00;;;;;;5029830;28;20068;-39
2024/01/09 04:36:24;;;;;;;;;;;-3274.20;88.20;;;;;;5011262;28;20434;-41
2024/01/09 04:38:50;;;;;;;7.55;3.95;;;-3274.30;88.30;;;;;;5079007;27;19911;-40
2024/01/09 04:41:17;;;;;;;9.80;4.68;;;-3274.30;88.10;;;;;;5096841;28;20037;-40
2024/01/09 04:43:46;;;;;;;8.23;3.88;;;-3274.30;88.20;;;;;;5010610;28;20046;-39
2024/01/09 04:46:13;;;;;;;8.60;4.43;;;-3274.20;88.00;;;;;;5010671;28;20068;-39
2024/01/09 04:48:40;;;;;;;7.63;4.15;;;-3274.20;88.00;;;;;;5010540;28;20438;-40
2024/01/09 04:51:07;;;;;;;8.10;4.53;;;-3274.30;88.20;;;;;;5010359;28;20040;-43
2024/01/09 04:53:33;;;;;;;9.02;4.85;;;-3274.30;88.10;;;;;;5010488;28;20109;-40
2024/01/09 04:55:59;;;;;;;5.72;4.10;;;-3274.20;88.10;;;;;;5010262;28;20559;-40
2024/01/09 04:58:25;;;;;;;9.90;3.72;;;-3274.30;88.20;;;;;;5010550;28;20086;-40
2024/01/09 05:00:53;;;;;;;7.15;3.78;;;-3274.30;88.10;;;;;;5010107;28;20030;-40
2024/01/09 05:03:20;;;;;;;8.48;4.10;;;-3274.30;88.20;;;;;;5010393;28;20041;-40
2024/01/09 05:05:45;;;;;;;6.60;3.80;;;-3274.20;88.20;;;;;;5009942;28;20111;-40
2024/01/09 05:08:13;;;;;;;8.63;4.65;;;-3274.30;88.30;;;;;;5009340;28;20038;-41
2024/01/09 05:10:39;;;;;;;6.15;4.00;;;-3274.30;88.20;;;;;;5010193;28;20018;-40
2024/01/09 05:13:06;;;;;;;10.05;4.93;;;-3274.30;88.10;;;;;;5010188;28;20067;-40
2024/01/09 05:15:33;;;;;;;9.35;4.25;;;-3274.20;87.70;;;;;;5010038;28;20030;-39
2024/01/09 05:18:01;;;;;;;10.77;4.57;;;-3274.30;88.10;;;;;;5010022;28;20029;-40
2024/01/09 05:20:29;;;;;;;7.00;3.88;;;-3274.30;88.10;;;;;;5008530;28;20044;-40
2024/01/09 05:22:59;;;;;;;10.25;5.25;;;-3274.20;88.20;;;;;;5009878;28;20041;-40
2024/01/09 05:25:25;;;;;;;7.97;3.95;;;-3274.20;88.20;;;;;;5010073;28;20030;-40
2024/01/09 05:27:53;;;;;;;7.93;3.78;;;-3274.20;88.20;;;;;;5009769;28;20147;-40
2024/01/09 05:30:20;;;;;;;9.30;3.75;;;-3274.20;88.20;;;;;;5009636;28;20034;-40
2024/01/09 05:32:45;;;;;;;14.13;5.53;;;-3274.20;88.40;;;;;;5009727;28;20030;-40
2024/01/09 05:35:13;;;;;;;6.35;3.47;;;-3274.20;88.50;;;;;;5009919;28;20037;-40
2024/01/09 05:37:38;;;;;;;6.95;3.63;;;-3274.20;88.30;;;;;;5016621;27;20045;-39
2024/01/09 05:40:06;;;;;;;7.07;3.45;;;-3274.20;88.30;;;;;;5133217;27;20026;-39
2024/01/09 05:42:31;;;;;;;6.75;3.97;;;-3274.20;88.20;;;;;;5069749;27;20026;-40
2024/01/09 05:44:58;;;;;;;8.80;3.80;;;-3274.20;88.40;;;;;;5009860;28;20034;-40
2024/01/09 05:47:25;;;;;;;6.65;3.20;;;-3274.20;88.30;;;;;;5009403;28;20029;-40
2024/01/09 05:49:51;;;;;;;8.15;4.20;;;-3274.20;88.30;;;;;;5009438;28;20022;-41
2024/01/09 05:52:21;;;;;;;10.73;3.58;;;-3274.20;88.30;;;;;;5018698;28;20033;-40
2024/01/09 05:54:48;;;;;;;6.45;3.50;;;-3274.20;88.10;;;;;;5025877;28;20033;-40
2024/01/09 05:57:15;;;;;;;8.82;3.67;;;-3274.20;88.10;;;;;;5009568;28;20037;-40
2024/01/09 05:59:41;;;;;;;7.38;3.95;;;-3274.30;88.10;;;;;;5009397;28;20122;-40
2024/01/09 06:02:07;;;;;;;7.43;4.15;;;-3274.20;87.80;;;;;;5009057;28;20080;-40
2024/01/09 06:04:33;;;;;;;7.55;4.30;;;-3274.20;87.90;;;;;;4991992;28;20030;-40
2024/01/09 06:07:00;;;;;;;8.00;4.18;;;-3274.20;87.80;;;;;;5012186;28;20502;-39
2024/01/09 06:09:27;;;;;;;5.30;3.13;;;-3274.20;87.70;;;;;;5029106;28;20591;-40
2024/01/09 06:11:54;;;;;;;7.57;4.13;;;-3274.20;87.70;;;;;;5029108;28;20409;-40
2024/01/09 06:14:21;;;;;;;7.18;3.75;;;-3274.10;87.70;;;;;;5029145;28;20053;-40
2024/01/09 06:16:49;;;;;;;6.65;3.80;;;-3274.10;87.70;;;;;;5010953;28;20146;-40
2024/01/09 06:19:17;;;;;;;7.40;3.80;;;-3274.20;87.50;;;;;;5009278;28;20102;-40
2024/01/09 06:21:47;;;;;;;7.82;3.75;;;-3274.20;87.50;;;;;;5008995;28;20045;-41
2024/01/09 06:24:14;;;;;;;7.85;3.25;;;-3274.10;87.20;;;;;;5008674;28;20639;-40
2024/01/09 06:26:41;;;;;;;9.57;3.78;;;-3274.10;87.30;;;;;;4991346;28;20034;-39
2024/01/09 06:29:06;;;;;;;7.20;2.97;;;-3274.10;87.20;;;;;;5008397;28;20026;-40
2024/01/09 06:31:33;;;;;;;6.97;3.58;;;-3274.10;87.10;;;;;;5008991;28;20033;-40
2024/01/09 06:33:59;;;;;;;8.30;3.80;;;-3274.10;86.90;;;;;;5008708;28;20037;-40
2024/01/09 06:36:24;;;;;;;6.57;3.75;;;-3274.20;87.10;;;;;;5009069;28;20037;-40
2024/01/09 06:38:51;;;;;;;5.35;3.17;;;-3274.20;87.10;;;;;;5057353;28;20038;-40
2024/01/09 06:41:18;;;;;;;9.40;3.78;;;-3274.20;87.20;;;;;;5008938;28;20046;-40
2024/01/09 06:43:47;;;;;;;7.75;4.75;;;-3274.30;87.40;;;;;;5008931;28;20065;-40
2024/01/09 06:46:14;;;;;;;7.78;4.55;;;-3274.30;87.50;;;;;;5008931;28;20085;-40
2024/01/09 06:48:40;;;;;;;8.07;4.03;;;-3274.30;87.50;;;;;;5008681;28;20348;-40
2024/01/09 06:51:11;;;;;;;9.63;4.68;;;-3274.30;87.60;;;;;;5008778;28;20026;-40
2024/01/09 06:53:38;;;;;;;9.90;4.60;;;-3274.30;87.80;;;;;;5008949;28;20142;-40
2024/01/09 06:56:05;;;;;;;9.35;4.65;;;-3274.40;87.90;;;;;;5008880;28;20045;-40
2024/01/09 06:58:35;;;;;;;10.80;5.38;;;-3274.40;87.80;;;;;;5008669;28;20049;-40
2024/01/09 07:01:03;;;;;;;9.73;5.07;;;-3274.40;87.80;;;;;;5008570;28;20339;-40
2024/01/09 07:03:32;;;;;;;7.73;4.20;;;-3274.40;87.60;;;;;;5008977;28;20095;-40
2024/01/09 07:05:58;;;;;;;8.77;4.53;;;-3274.30;87.40;;;;;;5008476;28;20289;-40
2024/01/09 07:08:28;;;;;;;7.10;4.32;;;-3274.30;87.40;;;;;;5028252;28;20025;-40
2024/01/09 07:10:55;;;;;;;7.72;4.10;;;-3274.30;87.40;;;;;;5028233;28;20022;-40
2024/01/09 07:13:21;;;;;;;8.73;5.32;;;-3274.30;87.50;;;;;;5029367;28;20038;-39
2024/01/09 07:15:48;;;;;;;7.07;4.20;;;-3274.30;87.20;;;;;;4999790;28;20026;-40
2024/01/09 07:18:17;;;;;;;8.00;4.70;;;-3274.30;87.30;;;;;;5011810;28;20030;-40
2024/01/09 07:20:44;;;;;;;11.93;4.63;;;-3274.30;87.50;;;;;;5011773;28;20102;-40
2024/01/09 07:23:11;;;;;;;9.93;4.78;;;-3274.30;87.60;;;;;;5011995;28;20029;-40
2024/01/09 07:25:38;;;;;;;8.30;4.53;;;-3274.30;87.60;;;;;;5011859;28;20050;-40
2024/01/09 07:28:06;;;;;;;8.52;3.78;;;-3274.30;87.80;;;;;;5011528;28;20026;-40
2024/01/09 07:30:32;;;;;;;8.20;3.78;;;-3274.30;87.80;;;;;;5031467;28;20122;-40
2024/01/09 07:32:59;;;;;;;8.13;4.72;;;-3274.40;87.80;;;;;;5031554;28;20032;-43
2024/01/09 07:35:26;;;;;;;8.10;4.43;;;-3274.40;87.90;;;;;;5031618;28;20354;-40
2024/01/09 07:37:52;;;;;;;8.50;4.50;;;-3274.40;87.80;;;;;;5059713;27;20019;-40
2024/01/09 07:40:17;;;;;;;7.95;3.70;;;-3274.40;87.90;;;;;;5105607;27;20040;-41
2024/01/09 07:42:44;;;;;;;8.75;4.28;;;-3274.40;87.90;;;;;;4994173;28;20050;-40
2024/01/09 07:45:15;;;;;;;11.27;4.70;;;-3274.40;87.90;;;;;;5011597;28;20026;-40
2024/01/09 07:47:42;;;;;;;8.55;4.15;;;-3274.40;87.90;;;;;;4994088;28;20034;-40
2024/01/09 07:50:09;;;;;;;8.25;5.00;;;-3274.40;87.90;;;;;;4994096;28;20026;-40
2024/01/09 07:52:35;;;;;;;11.13;5.00;;;-3274.40;88.00;;;;;;5011392;28;20501;-40
2024/01/09 07:55:03;;;;;;;8.48;5.25;;;-3274.40;88.10;;;;;;5011091;28;20071;-40
2024/01/09 07:57:33;;;;;;;12.25;4.32;;;-3274.40;88.00;;;;;;5011313;28;20022;-41
2024/01/09 08:00:04;;;;;;;6.75;3.72;;;-3274.50;88.00;;;;;;5011240;28;20058;-40
2024/01/09 08:02:31;;;;;;;8.07;4.45;;;-3274.50;88.10;;;;;;5023448;28;20029;-40
2024/01/09 08:04:58;;;;;;;9.20;4.57;;;-3274.50;88.20;;;;;;5030894;28;20029;-40
2024/01/09 08:07:24;;;;;;;10.02;5.35;;;-3274.60;88.20;;;;;;5014609;28;20316;-40
2024/01/09 08:09:49;;;;;;;8.10;3.92;;;-3274.60;88.20;;;;;;4993752;28;20025;-42
2024/01/09 08:12:16;;;;;;;7.63;4.13;;;-3274.60;88.20;;;;;;4993786;28;20072;-40
2024/01/09 08:14:43;;;;;;;10.48;6.82;;;-3274.70;88.50;;;;;;5011120;28;20057;-40
2024/01/09 08:17:10;;;;;;;7.20;4.35;;;-3274.70;88.30;;;;;;5010932;28;20066;-40
2024/01/09 08:19:36;;;;;;;7.65;3.90;;;-3274.70;88.30;;;;;;5014154;28;20057;-40
2024/01/09 08:22:03;;;;;;;8.30;4.18;;;-3274.80;88.50;;;;;;5030537;28;20025;-40
2024/01/09 08:24:32;;;;;;;7.57;3.28;;;-3274.80;88.40;;;;;;5029880;28;20017;-40
2024/01/09 08:27:03;;;;;;;8.25;4.28;;;-3274.80;88.50;;;;;;5022378;28;20106;-40
2024/01/09 08:29:34;;;;;;;7.82;4.05;;;-3274.80;88.30;;;;;;5010590;28;20335;-40
2024/01/09 08:32:03;;;;;;;6.93;4.13;;;-3274.80;88.50;;;;;;5010880;28;20029;-40
2024/01/09 08:34:30;;;;;;;9.80;3.95;;;-3274.80;88.80;;;;;;5010883;28;20026;-40
2024/01/09 08:36:55;;;;;;;7.82;4.05;;;-3274.80;88.80;;;;;;5010946;28;20026;-40
2024/01/09 08:39:22;;;;;;;7.55;4.38;;;-3274.90;88.80;;;;;;5105041;27;20086;-40
2024/01/09 08:41:49;;;;;;;7.28;3.90;;;-3274.90;88.90;;;;;;5116316;27;20034;-40
2024/01/09 08:44:17;;;;;;;9.23;6.03;;;-3275.00;89.10;;;;;;5069266;27;20072;-40
2024/01/09 08:46:44;;;;;;;9.02;3.83;;;-3275.00;88.80;;;;;;5012501;28;20086;-42
2024/01/09 08:49:13;;;;;;;9.13;4.40;;;-3275.00;88.90;;;;;;5020383;28;20045;-40
2024/01/09 08:51:42;;;;;;;9.98;5.55;;;-3275.00;88.90;;;;;;5009934;28;20030;-40
2024/01/09 08:54:09;;;;;;;9.75;6.30;;;-3275.00;88.90;;;;;;5010223;28;20030;-40
2024/01/09 08:56:42;;;;;;;12.82;6.97;;;-3275.00;88.90;;;;;;5010051;28;20062;-40
2024/01/09 08:59:09;;;;;;;8.18;4.45;;;-3275.10;89.10;;;;;;5010441;28;20030;-40
2024/01/09 09:01:35;;;;;;;10.90;5.18;;;-3275.10;89.00;;;;;;5010374;28;20036;-40
2024/01/09 09:04:02;;;;;;;9.50;5.63;;;-3275.10;89.00;;;;;;5010396;28;20030;-40
2024/01/09 09:06:30;;;;;;;12.45;7.75;;;-3275.20;89.10;;;;;;5010075;28;20061;-41
2024/01/09 09:08:55;;;;;;;12.00;7.85;;;-3275.20;89.10;;;;;;5010279;28;20391;-40
2024/01/09 09:11:22;;;;;;;39.47;19.17;;;-3275.20;88.90;;;;;;5010181;28;20057;-40
2024/01/09 09:13:49;;;;;;;36.45;19.13;;;-3275.40;89.00;;;;;;5010096;28;20030;-40
2024/01/09 09:16:16;;;;;;;77.05;43.35;;;-3275.40;88.90;;;;;;5010309;28;20030;-40
2024/01/09 09:18:44;;;;;;;37.20;20.98;;;-3275.50;88.70;;;;;;5010078;28;20029;-40
2024/01/09 09:21:12;;;;;;;34.75;20.50;;;-3275.60;88.50;;;;;;5010016;28;20030;-41
2024/01/09 09:23:39;;;;;;;11.85;8.48;;;-3275.60;88.30;;;;;;5010237;28;20453;-40
2024/01/09 09:26:06;;;;;;;13.45;8.68;;;-3275.70;88.10;;;;;;4992549;28;20038;-41
2024/01/09 09:28:33;;;;;;;7.60;4.55;;;-3275.70;88.00;;;;;;5009994;28;20026;-40
2024/01/09 09:31:03;;;;;;;8.60;4.50;;;-3275.80;87.60;;;;;;5009639;28;20327;-40
2024/01/09 09:33:33;;;;;;;7.05;3.92;;;-3275.80;87.60;;;;;;5010108;28;20109;-40
2024/01/09 09:36:11;;;;;;;7.28;3.55;;;-3275.80;87.40;;;;;;5009105;28;20433;-40
2024/01/09 09:38:38;;;;;;;7.13;3.75;;;-3275.80;87.30;;;;;;4995416;28;20124;-41
2024/01/09 09:41:17;;;;;;;10.48;3.83;;;-3275.90;87.10;;;;;;5009746;28;20037;-41
2024/01/09 09:43:48;;;;;;;;;;;-3275.90;87.00;;;;;;5010286;28;20050;-40
2024/01/09 09:46:22;;;;;;;9.15;4.05;;;-3275.90;87.00;;;;;;5009757;28;19916;-42
2024/01/09 09:48:52;;;;;;;6.72;3.88;;;-3276.00;86.90;;;;;;5026424;28;20044;-41
2024/01/09 09:51:24;;;;;;;7.15;2.97;;;-3276.00;86.60;;;;;;5001089;28;20085;-40
2024/01/09 09:53:57;;;;;;;6.57;3.08;;;-3276.10;86.40;;;;;;5009671;28;20097;-40
2024/01/09 09:56:25;;;;;;;6.35;2.90;;;-3276.10;86.40;;;;;;5009765;28;20022;-40
2024/01/09 09:58:51;;;;;;;6.38;3.38;;;-3276.20;85.90;;;;;;4992039;28;20343;-40
2024/01/09 10:01:18;;;;;;;6.57;3.28;;;-3276.30;85.60;;;;;;5009659;28;20037;-40
2024/01/09 10:03:58;;;;;;;6.57;3.45;;;-3276.40;85.50;;;;;;5009474;28;20018;-42
2024/01/09 10:06:27;;;;;;;4.88;2.70;;;-3276.50;85.50;;;;;;5009722;28;20018;-40
2024/01/09 10:08:56;;;;;;;4.97;2.85;;;-3276.50;85.10;;;;;;5009321;28;20037;-40
2024/01/09 10:11:25;;;;;;;6.13;3.20;;;-3276.60;85.10;;;;;;5009129;28;20045;-40
2024/01/09 10:13:53;;;;;;;4.80;2.92;;;-3276.60;84.60;;;;;;5009473;28;20041;-41
2024/01/09 10:16:24;;;;;;;6.78;3.78;;;-3276.60;84.50;;;;;;5009369;28;20057;-40
2024/01/09 10:18:54;;;;;;;5.25;2.97;;;-3276.60;84.40;;;;;;5009436;28;20081;-40
2024/01/09 10:21:22;;;;;;;4.80;2.67;;;-3276.50;84.30;;;;;;5023835;28;20026;-40
2024/01/09 10:23:53;;;;;;;5.45;2.97;;;-3276.50;84.50;;;;;;5029087;28;20028;-40
2024/01/09 10:26:25;;;;;;;4.53;2.00;;;-3276.50;84.40;;;;;;5013981;28;20086;-42
2024/01/09 10:28:52;;;;;;;4.50;2.00;;;-3276.50;84.60;;;;;;5009072;28;20029;-43
2024/01/09 10:31:19;;;;;;;5.00;2.45;;;-3276.40;84.30;;;;;;5009119;28;20034;-40
2024/01/09 10:33:45;;;;;;;5.15;2.53;;;-3276.30;84.10;;;;;;5009440;28;20029;-41
2024/01/09 10:36:15;;;;;;;10.90;3.00;;;-3276.40;84.60;;;;;;5009259;28;20086;-40
2024/01/09 10:38:41;;;;;;;4.95;2.05;;;-3276.30;84.20;;;;;;5069166;28;20023;-42
2024/01/09 10:41:21;;;;;;;8.23;3.75;;;-3276.30;84.30;;;;;;5132975;28;20337;-41
2024/01/09 10:43:52;;;;;;;23.17;12.55;;;-3276.40;84.50;;;;;;5099799;28;20145;-40
2024/01/09 10:46:26;;;;;;;180.05;72.53;;;-3276.40;84.60;;;;;;5009213;28;20154;-42
2024/01/09 10:48:54;;;;;;;158.68;68.93;;;-3276.40;84.40;;;;;;5011890;28;20034;-40
2024/01/09 10:51:22;;;;;;;17.13;10.48;;;-3276.50;84.60;;;;;;5012362;28;20462;-42
2024/01/09 10:53:51;;;;;;;8.47;4.50;;;-3276.50;84.50;;;;;;4995118;28;20054;-41
2024/01/09 10:56:22;;;;;;;8.87;6.73;;;-3276.50;84.40;;;;;;5012439;28;20105;-42
2024/01/09 10:58:51;;;;;;;6.35;3.65;;;-3276.50;84.20;;;;;;5012499;28;20427;-41
2024/01/09 11:01:23;;;;;;;5.10;2.63;;;-3276.50;84.20;;;;;;5012540;28;20036;-40
2024/01/09 11:03:50;;;;;;;8.02;3.05;;;-3276.50;84.30;;;;;;5012137;28;20418;-40
2024/01/09 11:06:17;;;;;;;6.07;3.05;;;-3276.50;84.20;;;;;;5029798;28;20073;-40
2024/01/09 11:08:51;;;;;;;5.63;4.03;;;-3276.50;84.30;;;;;;5030479;28;20025;-41
2024/01/09 11:11:22;;;;;;;4.25;2.58;;;-3276.50;84.20;;;;;;5011600;28;20034;-41
2024/01/09 11:13:52;;;;;;;5.55;3.45;;;-3276.50;84.30;;;;;;5008648;28;20052;-42
2024/01/09 11:16:23;;;;;;;5.78;2.22;;;-3276.60;84.50;;;;;;5011420;28;20201;-40
2024/01/09 11:18:52;;;;;;;5.68;2.22;;;-3276.50;84.00;;;;;;5011271;28;20081;-41
2024/01/09 11:21:25;;;;;;;6.85;2.95;;;-3276.60;84.20;;;;;;4993744;28;20037;-41
2024/01/09 11:23:57;;;;;;;7.07;3.08;;;-3276.60;84.40;;;;;;5020014;28;20033;-42
2024/01/09 11:26:31;;;;;;;6.05;2.75;;;-3276.60;84.50;;;;;;5030821;28;20105;-40
2024/01/09 11:29:01;;;;;;;5.25;3.33;;;-3276.60;84.50;;;;;;5009839;28;20029;-40
2024/01/09 11:31:29;;;;;;;7.40;4.03;;;-3276.60;84.50;;;;;;5011409;28;20030;-40
2024/01/09 11:33:57;;;;;;;7.78;3.25;;;-3276.70;84.50;;;;;;5011553;28;20470;-40
2024/01/09 11:36:33;;;;;;;5.55;3.78;;;-3276.60;84.50;;;;;;5011726;28;20070;-41
2024/01/09 11:39:00;;;;;;;5.97;3.35;;;-3276.60;84.60;;;;;;5086858;27;20023;-41
2024/01/09 11:41:35;;;;;;;6.00;3.53;;;-3276.60;84.50;;;;;;5135705;27;20083;-42
2024/01/09 11:44:15;;;;;;;5.88;3.85;;;-3276.60;84.70;;;;;;5077144;27;20057;-40
2024/01/09 11:46:44;;;;;;;5.38;3.58;;;-3276.60;84.60;;;;;;5011480;28;20057;-40
2024/01/09 11:49:11;;;;;;;5.00;2.90;;;-3276.50;84.70;;;;;;5011465;28;20346;-42
2024/01/09 11:51:38;;;;;;;6.30;3.15;;;-3276.50;84.50;;;;;;5011470;28;20454;-40
2024/01/09 11:54:11;;;;;;;9.30;3.22;;;-3276.50;84.60;;;;;;5011256;28;20033;-40
2024/01/09 11:56:40;;;;;;;6.47;3.15;;;-3276.50;84.70;;;;;;5011322;28;20026;-41
2024/01/09 11:59:08;;;;;;;6.35;2.75;;;-3276.50;84.60;;;;;;5010617;28;20037;-40
2024/01/09 12:01:35;;;;;;;5.70;3.47;;;-3276.50;84.60;;;;;;5010849;28;20416;-42
2024/01/09 12:04:02;;;;;;;6.20;4.07;;;-3276.50;84.90;;;;;;5011036;28;20443;-40
2024/01/09 12:06:29;;;;;;;6.93;3.75;;;-3276.60;84.40;;;;;;5011241;28;20112;-42
2024/01/09 12:08:59;;;;;;;7.28;3.22;;;-3276.60;84.30;;;;;;5011217;28;20018;-40
2024/01/09 12:11:27;;;;;;;3.95;2.20;;;-3276.60;84.30;;;;;;5010898;28;20307;-40
2024/01/09 12:14:01;;;;;;;5.18;2.55;;;-3276.70;84.40;;;;;;5011091;28;20101;-41
2024/01/09 12:16:29;;;;;;;4.47;2.60;;;-3276.60;83.90;;;;;;5010925;28;20045;-39
2024/01/09 12:18:57;;;;;;;5.03;2.17;;;-3276.50;83.70;;;;;;5010923;28;20174;-40